Time;durP1;ratioP1;P1;durP2;ratioP2;P2;SDS_P1;SDS_P2;PMS_P1;PMS_P2;Temp;Humidity;BMP_temperature;BMP_pressure;BME280_temperature;BME280_humidity;BME280_pressure;Samples;Min_cycle;Max_cycle;Signal;HPM_P1;HPM_P2
2022/11/17 00:01:07;;;;;;;23.48;14.02;;;8.60;99.90;;;;;;4992033;28;20046;-67
2022/11/17 00:03:33;;;;;;;19.35;12.07;;;8.60;99.90;;;;;;4976077;28;20054;-67
2022/11/17 00:06:05;;;;;;;19.77;11.68;;;8.80;99.90;;;;;;4996796;28;20069;-67
2022/11/17 00:08:31;;;;;;;19.92;13.60;;;8.70;99.90;;;;;;5012387;28;20041;-67
2022/11/17 00:11:02;;;;;;;17.65;12.07;;;8.70;99.90;;;;;;4994942;28;20546;-67
2022/11/17 00:16:14;;;;;;;18.48;9.23;;;8.60;99.90;;;;;;5011800;28;20414;-67
2022/11/17 00:21:27;;;;;;;18.55;11.65;;;8.50;99.90;;;;;;5015764;28;20050;-67
2022/11/17 00:23:53;;;;;;;19.17;13.18;;;8.60;99.90;;;;;;4999396;28;20042;-66
2022/11/17 00:26:23;;;;;;;17.50;11.00;;;8.60;99.90;;;;;;4995541;28;20130;-67
2022/11/17 00:28:55;;;;;;;16.25;11.80;;;8.60;99.90;;;;;;4980075;28;20518;-67
2022/11/17 00:34:12;;;;;;;16.85;10.07;;;8.60;99.90;;;;;;4996013;28;20039;-67
2022/11/17 00:36:43;;;;;;;16.40;12.23;;;8.70;99.90;;;;;;4995929;28;20093;-67
2022/11/17 00:39:10;;;;;;;10.40;6.63;;;8.60;99.90;;;;;;4997674;28;20553;-67
2022/11/17 00:41:36;;;;;;;16.02;12.57;;;8.80;99.90;;;;;;5010412;28;20038;-67
2022/11/17 00:44:02;;;;;;;16.83;13.43;;;8.60;99.90;;;;;;5014983;28;20038;-67
2022/11/17 00:46:28;;;;;;;14.55;9.48;;;8.50;99.90;;;;;;5015269;28;20041;-67
2022/11/17 00:48:53;;;;;;;17.23;10.88;;;8.50;99.90;;;;;;5014367;28;20121;-67
2022/11/17 00:51:19;;;;;;;12.82;8.43;;;8.60;99.90;;;;;;5014432;28;20387;-67
2022/11/17 00:53:45;;;;;;;15.98;10.95;;;8.70;99.90;;;;;;5015481;28;20573;-66
2022/11/17 00:56:11;;;;;;;16.00;11.18;;;8.60;99.90;;;;;;5015353;28;20037;-67
2022/11/17 00:58:37;;;;;;;14.95;11.45;;;8.60;99.90;;;;;;4998893;28;20053;-67
2022/11/17 01:01:03;;;;;;;14.75;9.65;;;8.60;99.90;;;;;;5014396;28;20041;-67
2022/11/17 01:03:28;;;;;;;14.77;11.02;;;8.70;99.90;;;;;;4998534;28;20140;-67
2022/11/17 01:05:54;;;;;;;13.82;9.02;;;8.70;99.90;;;;;;4998021;28;20120;-67
2022/11/17 01:08:20;;;;;;;14.82;10.70;;;8.70;99.90;;;;;;5015215;28;20449;-67
2022/11/17 01:10:46;;;;;;;12.43;7.65;;;8.60;99.90;;;;;;4993113;28;20033;-67
2022/11/17 01:13:11;;;;;;;13.40;10.02;;;8.70;99.90;;;;;;5015203;28;20042;-67
2022/11/17 01:15:37;;;;;;;15.20;10.65;;;8.70;99.90;;;;;;4997597;28;20045;-67
2022/11/17 01:18:03;;;;;;;15.63;9.70;;;8.70;99.90;;;;;;5014908;28;20047;-67
2022/11/17 01:20:28;;;;;;;15.52;11.32;;;8.50;99.90;;;;;;4998429;28;20046;-67
2022/11/17 01:22:54;;;;;;;13.55;10.20;;;8.60;99.90;;;;;;5014581;28;20401;-67
2022/11/17 01:25:20;;;;;;;13.60;9.98;;;8.60;99.90;;;;;;4997978;28;20048;-66
2022/11/17 01:27:47;;;;;;;11.30;7.32;;;8.70;99.90;;;;;;5013208;28;20034;-66
2022/11/17 01:30:13;;;;;;;13.50;9.45;;;8.70;99.90;;;;;;4998215;28;20041;-66
2022/11/17 01:32:39;;;;;;;13.38;10.45;;;8.70;99.90;;;;;;5014091;28;20429;-66
2022/11/17 01:35:05;;;;;;;16.35;11.50;;;8.70;99.90;;;;;;5010249;28;20050;-67
2022/11/17 01:37:31;;;;;;;15.38;9.90;;;8.60;99.90;;;;;;4994047;28;20045;-67
2022/11/17 01:39:56;;;;;;;14.43;10.20;;;8.70;99.90;;;;;;4977973;28;20038;-67
2022/11/17 01:42:24;;;;;;;14.30;9.57;;;8.70;99.90;;;;;;5009703;28;20046;-67
2022/11/17 01:44:54;;;;;;;15.07;10.43;;;8.70;99.90;;;;;;5013065;28;20494;-67
2022/11/17 01:47:40;;;;;;;12.10;7.68;;;8.60;99.90;;;;;;4997823;28;20088;-67
2022/11/17 01:50:06;;;;;;;15.68;12.43;;;8.70;99.90;;;;;;5010515;28;20056;-66
2022/11/17 01:52:34;;;;;;;14.98;10.48;;;8.60;99.90;;;;;;4997354;28;20125;-66
2022/11/17 01:55:01;;;;;;;13.65;10.45;;;8.60;99.90;;;;;;5013234;28;20042;-66
2022/11/17 01:57:34;;;;;;;13.55;10.32;;;8.50;99.90;;;;;;4997731;28;20053;-67
2022/11/17 02:00:04;;;;;;;14.73;8.75;;;8.50;99.90;;;;;;5013722;28;20508;-67
2022/11/17 02:02:30;;;;;;;12.73;6.82;;;8.70;99.90;;;;;;5013310;28;20133;-67
2022/11/17 02:05:15;;;;;;;14.05;10.30;;;8.60;99.90;;;;;;5012841;28;20054;-67
2022/11/17 02:07:43;;;;;;;12.23;8.30;;;8.70;99.90;;;;;;5014021;28;20034;-67
2022/11/17 02:10:09;;;;;;;14.20;10.20;;;8.70;99.90;;;;;;5013762;28;20040;-67
2022/11/17 02:12:35;;;;;;;15.70;11.75;;;8.70;99.90;;;;;;5012448;28;20054;-67
2022/11/17 02:15:03;;;;;;;15.35;10.63;;;8.70;99.90;;;;;;4993372;28;20138;-67
2022/11/17 02:17:39;;;;;;;13.38;8.68;;;8.60;99.90;;;;;;4977733;28;20042;-67
2022/11/17 02:20:12;;;;;;;11.90;8.27;;;8.60;99.90;;;;;;4979490;28;20038;-67
2022/11/17 02:22:45;;;;;;;13.90;10.02;;;8.70;99.90;;;;;;4996344;28;20104;-67
2022/11/17 02:25:11;;;;;;;12.30;8.05;;;8.60;99.90;;;;;;4993357;28;20069;-67
2022/11/17 02:27:46;;;;;;;12.10;6.90;;;8.60;99.90;;;;;;4991121;28;20085;-66
2022/11/17 02:30:15;;;;;;;16.08;9.88;;;8.70;99.90;;;;;;5013483;28;20053;-67
2022/11/17 02:33:01;;;;;;;14.55;10.80;;;8.80;99.90;;;;;;4997334;28;20042;-66
2022/11/17 02:35:35;;;;;;;15.13;9.65;;;8.70;99.90;;;;;;5012016;28;20054;-67
2022/11/17 02:38:21;;;;;;;14.20;9.95;;;8.60;99.90;;;;;;4997138;28;20056;-67
2022/11/17 02:41:02;;;;;;;14.93;9.90;;;8.60;99.90;;;;;;4994789;28;20045;-67
2022/11/17 02:46:23;;;;;;;14.18;11.75;;;8.50;99.90;;;;;;5012488;28;20510;-67
2022/11/17 02:48:57;;;;;;;13.27;9.95;;;8.50;99.90;;;;;;5012433;28;20052;-66
2022/11/17 02:51:23;;;;;;;14.43;9.90;;;8.40;99.90;;;;;;5013406;28;20394;-67
2022/11/17 02:53:51;;;;;;;15.32;11.23;;;8.50;99.90;;;;;;5012168;28;20030;-66
2022/11/17 02:56:17;;;;;;;17.17;12.35;;;8.40;99.90;;;;;;4996938;28;20041;-66
2022/11/17 02:58:43;;;;;;;15.27;11.55;;;8.30;99.90;;;;;;4996506;28;20487;-66
2022/11/17 03:01:20;;;;;;;15.90;11.38;;;8.40;99.90;;;;;;5012431;28;20410;-67
2022/11/17 03:04:11;;;;;;;15.65;11.50;;;8.40;99.90;;;;;;4995103;28;20141;-66
2022/11/17 03:06:55;;;;;;;17.70;11.82;;;8.40;99.90;;;;;;5012053;28;20441;-67
2022/11/17 03:09:45;;;;;;;14.48;10.55;;;8.40;99.90;;;;;;5012153;28;20042;-67
2022/11/17 03:12:48;;;;;;;15.85;11.60;;;8.30;99.90;;;;;;4984428;28;20057;-67
2022/11/17 03:15:36;;;;;;;17.02;11.75;;;8.40;99.90;;;;;;4979784;28;20057;-66
2022/11/17 03:18:21;;;;;;;14.65;10.80;;;8.30;99.90;;;;;;5024982;28;20049;-67
2022/11/17 03:21:13;;;;;;;18.02;13.23;;;8.30;99.90;;;;;;5027587;28;20053;-66
2022/11/17 03:23:45;;;;;;;11.25;6.72;;;8.20;99.90;;;;;;5007545;28;20042;-66
2022/11/17 03:26:12;;;;;;;;;;;8.30;99.90;;;;;;4992312;28;20048;-66
2022/11/17 03:28:39;;;;;;;13.65;9.57;;;8.30;99.90;;;;;;4973716;28;19968;-66
2022/11/17 03:31:08;;;;;;;13.27;9.10;;;8.30;99.90;;;;;;4996409;28;20037;-66
2022/11/17 03:33:35;;;;;;;15.70;11.60;;;8.30;99.90;;;;;;4994736;28;20521;-66
2022/11/17 03:36:05;;;;;;;14.40;10.55;;;8.20;99.90;;;;;;5010528;28;20066;-66
2022/11/17 03:38:35;;;;;;;14.15;11.60;;;8.20;99.90;;;;;;5011460;28;20100;-66
2022/11/17 03:41:03;;;;;;;15.98;11.60;;;8.20;99.90;;;;;;4990462;28;20049;-66
2022/11/17 03:43:31;;;;;;;12.82;9.65;;;8.10;99.90;;;;;;4991902;28;20042;-67
2022/11/17 03:46:04;;;;;;;15.48;9.95;;;8.20;99.90;;;;;;5007069;28;20049;-66
2022/11/17 03:48:49;;;;;;;15.40;10.57;;;8.30;99.90;;;;;;4995322;28;20038;-66
2022/11/17 03:51:19;;;;;;;15.13;10.30;;;8.20;99.90;;;;;;5000343;28;20038;-67
2022/11/17 03:53:46;;;;;;;16.27;11.65;;;8.30;99.90;;;;;;5011359;28;20045;-66
2022/11/17 03:56:29;;;;;;;13.07;9.77;;;8.10;99.90;;;;;;5009694;28;20065;-66
2022/11/17 03:59:24;;;;;;;15.30;11.77;;;8.20;99.90;;;;;;5011446;28;20490;-66
2022/11/17 04:01:50;;;;;;;15.27;11.63;;;8.20;99.90;;;;;;4994015;28;20403;-66
2022/11/17 04:04:19;;;;;;;12.07;8.60;;;8.10;99.90;;;;;;4974521;28;1049251;-67
2022/11/17 04:06:45;;;;;;;14.30;10.65;;;8.10;99.90;;;;;;4994692;28;20060;-66
2022/11/17 04:09:10;;;;;;;13.88;9.98;;;8.10;99.90;;;;;;5012070;28;20049;-67
2022/11/17 04:17:04;;;;;;;13.18;9.45;;;8.20;99.90;;;;;;5010413;28;20049;-66
2022/11/17 04:19:30;;;;;;;13.85;8.40;;;8.10;99.90;;;;;;4995523;28;20049;-66
2022/11/17 04:21:55;;;;;;;13.50;10.00;;;8.10;99.90;;;;;;5011160;28;20050;-66
2022/11/17 04:24:21;;;;;;;15.15;10.68;;;8.10;99.90;;;;;;4991955;28;20077;-66
2022/11/17 04:29:32;;;;;;;11.00;8.27;;;8.00;99.90;;;;;;4992449;28;20043;-66
2022/11/17 04:31:58;;;;;;;17.80;13.35;;;8.00;99.90;;;;;;4988637;28;20064;-66
2022/11/17 04:34:23;;;;;;;15.52;10.70;;;8.00;99.90;;;;;;5010891;28;20041;-66
2022/11/17 04:36:49;;;;;;;13.90;11.20;;;7.90;99.90;;;;;;4995567;28;20417;-66
2022/11/17 04:39:15;;;;;;;15.10;11.10;;;7.90;99.90;;;;;;5011964;28;20096;-66
2022/11/17 04:41:55;;;;;;;16.02;11.48;;;7.90;99.90;;;;;;5009991;28;20038;-66
2022/11/17 04:44:26;;;;;;;23.42;9.00;;;7.80;99.90;;;;;;4994771;28;20061;-66
2022/11/17 04:46:53;;;;;;;14.23;10.15;;;7.90;99.90;;;;;;4995390;28;20075;-66
2022/11/17 04:49:20;;;;;;;11.57;9.10;;;7.80;99.90;;;;;;5011522;28;20564;-66
2022/11/17 04:51:47;;;;;;;12.18;8.43;;;7.80;99.90;;;;;;5011069;28;20125;-66
2022/11/17 04:54:15;;;;;;;11.73;8.30;;;7.80;99.90;;;;;;5011003;28;20514;-66
2022/11/17 04:56:41;;;;;;;12.77;9.48;;;8.00;99.90;;;;;;4995336;28;20049;-66
2022/11/17 04:59:07;;;;;;;13.13;7.50;;;7.90;99.90;;;;;;4995406;28;20557;-66
2022/11/17 05:01:33;;;;;;;13.18;11.10;;;7.90;99.90;;;;;;5001970;28;20053;-66
2022/11/17 05:04:07;;;;;;;15.07;10.65;;;7.70;99.90;;;;;;4984958;28;20497;-66
2022/11/17 05:06:43;;;;;;;12.40;9.38;;;7.70;99.90;;;;;;4998768;28;20084;-66
2022/11/17 05:09:14;;;;;;;11.90;8.23;;;7.70;99.90;;;;;;5014837;28;20501;-66
2022/11/17 05:14:25;;;;;;;13.25;9.50;;;7.70;99.90;;;;;;5014137;28;20053;-66
2022/11/17 05:17:09;;;;;;;10.07;7.50;;;7.50;99.90;;;;;;5014865;28;20095;-66
2022/11/17 05:19:39;;;;;;;10.85;7.07;;;7.60;99.90;;;;;;4998326;28;20565;-66
2022/11/17 05:24:51;;;;;;;14.10;11.68;;;7.60;99.90;;;;;;5014054;28;20041;-66
2022/11/17 05:27:17;;;;;;;10.18;6.90;;;7.50;99.90;;;;;;4998636;28;20390;-66
2022/11/17 05:29:42;;;;;;;11.55;8.45;;;7.50;99.90;;;;;;4998136;28;20042;-66
2022/11/17 05:32:08;;;;;;;12.60;9.50;;;7.50;99.90;;;;;;4994447;28;20042;-66
2022/11/17 05:34:33;;;;;;;12.57;9.07;;;7.40;99.90;;;;;;5006477;28;20042;-66
2022/11/17 05:36:59;;;;;;;12.02;8.38;;;7.50;99.90;;;;;;5014750;28;20050;-66
2022/11/17 05:39:24;;;;;;;9.65;6.43;;;7.60;99.90;;;;;;5014618;28;20081;-66
2022/11/17 05:41:50;;;;;;;11.95;8.63;;;7.60;99.90;;;;;;5013307;28;20490;-66
2022/11/17 05:44:15;;;;;;;11.82;8.48;;;7.70;99.90;;;;;;5013585;28;20482;-66
2022/11/17 05:46:41;;;;;;;11.98;8.52;;;7.70;99.90;;;;;;5014246;28;20045;-66
2022/11/17 05:49:06;;;;;;;10.10;6.65;;;7.60;99.90;;;;;;4998127;28;20045;-66
2022/11/17 05:51:32;;;;;;;8.52;6.15;;;7.60;99.90;;;;;;4997536;28;20045;-66
2022/11/17 05:53:58;;;;;;;10.55;7.55;;;7.60;99.90;;;;;;5013706;28;20033;-67
2022/11/17 05:56:32;;;;;;;11.65;7.50;;;7.60;99.90;;;;;;5013398;28;20041;-66
2022/11/17 05:59:45;;;;;;;10.15;6.28;;;7.50;99.90;;;;;;4997738;28;20487;-66
2022/11/17 06:02:17;;;;;;;11.73;7.93;;;7.40;99.90;;;;;;4979751;28;20096;-66
2022/11/17 06:04:43;;;;;;;10.02;6.95;;;7.40;99.90;;;;;;5007251;28;20045;-66
2022/11/17 06:07:09;;;;;;;10.77;7.90;;;7.40;99.90;;;;;;4996311;28;20115;-66
2022/11/17 06:09:39;;;;;;;10.10;6.53;;;7.30;99.90;;;;;;5013806;28;20038;-66
2022/11/17 06:12:04;;;;;;;10.52;6.10;;;7.30;99.90;;;;;;4993716;28;20514;-66
2022/11/17 06:14:30;;;;;;;11.77;7.13;;;7.30;99.90;;;;;;5012760;28;20077;-66
2022/11/17 06:17:01;;;;;;;10.88;8.18;;;7.20;99.90;;;;;;5013675;28;20505;-66
2022/11/17 06:19:34;;;;;;;9.45;6.28;;;7.20;99.90;;;;;;4997328;28;20505;-66
2022/11/17 06:22:00;;;;;;;9.73;7.13;;;7.30;99.90;;;;;;5012831;28;20042;-67
2022/11/17 06:24:25;;;;;;;7.10;4.43;;;7.30;99.90;;;;;;4997330;28;20038;-66
2022/11/17 06:26:51;;;;;;;9.55;6.80;;;7.40;99.90;;;;;;5012099;28;20100;-66
2022/11/17 06:29:17;;;;;;;9.73;6.20;;;7.50;99.90;;;;;;4997236;28;20038;-66
2022/11/17 06:31:45;;;;;;;9.13;6.20;;;7.40;99.90;;;;;;5012816;28;20068;-66
2022/11/17 06:34:11;;;;;;;8.68;6.32;;;7.30;99.90;;;;;;4997039;28;20037;-66
2022/11/17 06:36:36;;;;;;;9.23;6.30;;;7.30;99.90;;;;;;5012636;28;20100;-66
2022/11/17 06:39:02;;;;;;;9.02;5.93;;;7.30;99.90;;;;;;5013598;28;20046;-66
2022/11/17 06:41:29;;;;;;;8.45;5.70;;;7.40;99.90;;;;;;4992056;28;20040;-66
2022/11/17 06:43:55;;;;;;;7.93;5.63;;;7.40;99.90;;;;;;4995983;28;20141;-66
2022/11/17 06:46:20;;;;;;;10.63;5.82;;;7.40;99.90;;;;;;5008856;28;20549;-66
2022/11/17 06:48:46;;;;;;;8.27;5.63;;;7.30;99.90;;;;;;4993801;28;20029;-66
2022/11/17 06:51:12;;;;;;;8.18;4.75;;;7.30;99.90;;;;;;5009283;28;20029;-66
2022/11/17 06:53:38;;;;;;;10.95;6.05;;;7.30;99.90;;;;;;4996746;28;20505;-66
2022/11/17 06:56:10;;;;;;;9.80;6.18;;;7.30;99.90;;;;;;4992690;28;20402;-66
2022/11/17 06:58:37;;;;;;;;;;;7.40;99.90;;;;;;4977852;28;20430;-66
2022/11/17 07:01:08;;;;;;;9.00;6.50;;;7.30;99.90;;;;;;5006827;28;19917;-66
2022/11/17 07:03:35;;;;;;;9.93;5.73;;;7.20;99.90;;;;;;5006140;28;20580;-66
2022/11/17 07:06:03;;;;;;;9.02;6.55;;;7.30;99.90;;;;;;4988013;28;22120;-66
2022/11/17 07:08:29;;;;;;;9.40;6.38;;;7.20;99.90;;;;;;4994899;28;20052;-66
2022/11/17 07:10:59;;;;;;;8.63;5.82;;;7.20;99.90;;;;;;5007270;28;20034;-66
2022/11/17 07:13:25;;;;;;;9.07;4.90;;;7.30;99.90;;;;;;4992805;28;20038;-66
2022/11/17 07:15:51;;;;;;;9.70;5.95;;;7.30;99.90;;;;;;4976457;28;20034;-66
2022/11/17 07:18:18;;;;;;;8.95;6.57;;;7.40;99.90;;;;;;5006123;28;20053;-66
2022/11/17 07:20:44;;;;;;;9.18;5.57;;;7.20;99.90;;;;;;5006595;28;20503;-66
2022/11/17 07:23:10;;;;;;;9.68;6.20;;;7.40;99.90;;;;;;4991381;28;20091;-66
2022/11/17 07:25:35;;;;;;;8.15;5.80;;;7.30;99.90;;;;;;5011405;28;20429;-66
2022/11/17 07:28:01;;;;;;;8.80;5.45;;;7.30;99.90;;;;;;4996163;28;20125;-66
2022/11/17 07:30:27;;;;;;;9.13;6.25;;;7.30;99.90;;;;;;5005600;28;20398;-66
2022/11/17 07:32:53;;;;;;;8.88;6.28;;;7.30;99.90;;;;;;5005584;28;20039;-66
2022/11/17 07:35:19;;;;;;;8.43;5.97;;;7.30;99.90;;;;;;5002796;28;20040;-66
2022/11/17 07:37:44;;;;;;;10.15;5.70;;;7.40;99.90;;;;;;4999874;28;20478;-66
2022/11/17 07:40:10;;;;;;;7.40;4.55;;;7.40;99.90;;;;;;5009184;28;20556;-66
2022/11/17 07:42:36;;;;;;;7.85;5.30;;;7.40;99.90;;;;;;4995775;28;20064;-66
2022/11/17 07:45:01;;;;;;;6.85;4.35;;;7.40;99.90;;;;;;5011191;28;20040;-66
2022/11/17 07:47:27;;;;;;;9.88;5.90;;;7.30;99.90;;;;;;4994358;28;20042;-66
2022/11/17 07:49:52;;;;;;;8.27;5.55;;;7.30;99.90;;;;;;5003775;28;20042;-66
2022/11/17 07:52:18;;;;;;;8.02;4.65;;;7.30;99.90;;;;;;5008742;28;20085;-66
2022/11/17 07:54:43;;;;;;;7.57;4.97;;;7.30;99.90;;;;;;5009006;28;20046;-66
2022/11/17 07:57:09;;;;;;;6.97;4.28;;;7.30;99.90;;;;;;5009098;28;20041;-66
2022/11/17 07:59:35;;;;;;;7.53;4.32;;;7.40;99.90;;;;;;4994320;28;20042;-66
2022/11/17 08:02:00;;;;;;;7.22;4.47;;;7.40;99.90;;;;;;5005998;28;20465;-66
2022/11/17 08:04:26;;;;;;;8.25;5.13;;;7.30;99.90;;;;;;5006728;28;20553;-66
2022/11/17 08:06:51;;;;;;;7.75;4.90;;;7.30;99.90;;;;;;5006689;28;20046;-66
2022/11/17 08:09:17;;;;;;;6.68;3.13;;;7.40;99.90;;;;;;5009843;28;20041;-66
2022/11/17 08:11:42;;;;;;;7.40;4.65;;;7.40;99.90;;;;;;4991636;28;20037;-66
2022/11/17 08:14:08;;;;;;;6.97;4.00;;;7.40;99.90;;;;;;5026540;28;20405;-66
2022/11/17 08:16:34;;;;;;;8.65;4.65;;;7.50;99.90;;;;;;5012559;28;20038;-67
2022/11/17 08:18:59;;;;;;;8.65;5.03;;;7.40;99.90;;;;;;5009133;28;20091;-67
2022/11/17 08:21:25;;;;;;;8.88;4.97;;;7.40;99.90;;;;;;4999976;28;20042;-66
2022/11/17 08:23:51;;;;;;;7.10;4.43;;;7.40;99.90;;;;;;4975724;28;20061;-66
2022/11/17 08:26:19;;;;;;;8.73;5.38;;;7.40;99.90;;;;;;5006497;28;20045;-69
2022/11/17 08:28:45;;;;;;;8.75;4.82;;;7.40;99.90;;;;;;5006583;28;20081;-69
2022/11/17 08:31:11;;;;;;;9.02;6.10;;;7.40;99.90;;;;;;4998768;28;20038;-66
2022/11/17 08:33:37;;;;;;;8.60;5.57;;;7.30;99.90;;;;;;4994391;28;20605;-69
2022/11/17 08:36:05;;;;;;;7.53;5.13;;;7.40;99.90;;;;;;4990225;28;20060;-67
2022/11/17 08:38:31;;;;;;;7.80;4.32;;;7.40;99.90;;;;;;4996738;28;20150;-67
2022/11/17 08:41:06;;;;;;;8.05;5.85;;;7.50;99.90;;;;;;5010328;28;20120;-67
2022/11/17 08:43:32;;;;;;;7.78;4.28;;;7.60;99.90;;;;;;4986524;28;20182;-66
2022/11/17 08:45:58;;;;;;;7.78;4.97;;;7.40;99.90;;;;;;5014257;28;20034;-65
2022/11/17 08:48:24;;;;;;;6.22;3.92;;;7.50;99.90;;;;;;5013516;28;20033;-66
2022/11/17 08:50:50;;;;;;;7.85;5.45;;;7.50;99.90;;;;;;5011179;28;20056;-67
2022/11/17 08:53:20;;;;;;;9.05;6.30;;;7.50;99.90;;;;;;5012196;28;20041;-66
2022/11/17 08:55:46;;;;;;;9.35;5.85;;;7.50;99.90;;;;;;5013933;28;20124;-66
2022/11/17 08:58:12;;;;;;;9.20;5.78;;;7.40;99.90;;;;;;5007034;28;20073;-66
2022/11/17 09:00:38;;;;;;;9.48;6.25;;;7.40;99.90;;;;;;5012341;28;20037;-66
2022/11/17 09:03:06;;;;;;;6.55;4.03;;;7.30;99.90;;;;;;4996737;28;20061;-66
2022/11/17 09:05:34;;;;;;;7.78;4.50;;;7.40;99.90;;;;;;5003218;28;20061;-66
2022/11/17 09:08:00;;;;;;;6.28;4.60;;;7.40;99.90;;;;;;4981705;28;20491;-66
2022/11/17 09:10:25;;;;;;;7.38;4.47;;;7.40;99.90;;;;;;4992005;28;20399;-66
2022/11/17 09:12:54;;;;;;;8.63;5.50;;;7.40;99.90;;;;;;4982014;28;20048;-66
2022/11/17 09:15:21;;;;;;;10.77;5.78;;;7.40;99.90;;;;;;5012432;28;20045;-66
2022/11/17 09:17:46;;;;;;;8.13;4.97;;;7.40;99.90;;;;;;4984249;28;20101;-66
2022/11/17 09:20:13;;;;;;;7.80;5.22;;;7.50;99.90;;;;;;4983392;28;20434;-66
2022/11/17 09:22:38;;;;;;;9.18;4.80;;;7.50;99.90;;;;;;4984094;28;20116;-66
2022/11/17 09:25:04;;;;;;;6.93;4.05;;;7.50;99.90;;;;;;4989207;28;20471;-65
2022/11/17 09:27:30;;;;;;;6.28;4.22;;;7.50;99.90;;;;;;4998242;28;20526;-66
2022/11/17 09:29:55;;;;;;;7.28;4.85;;;7.50;99.90;;;;;;5011656;28;20042;-66
2022/11/17 09:32:21;;;;;;;7.88;4.15;;;7.50;99.90;;;;;;5012063;28;20042;-66
2022/11/17 09:34:46;;;;;;;7.20;3.95;;;7.50;99.90;;;;;;4996712;28;20042;-66
2022/11/17 09:37:12;;;;;;;6.97;4.75;;;7.60;99.90;;;;;;5011493;28;20543;-66
2022/11/17 09:39:37;;;;;;;6.85;3.70;;;7.50;99.90;;;;;;4994460;28;20042;-66
2022/11/17 09:42:03;;;;;;;5.80;3.35;;;7.50;99.90;;;;;;5011766;28;20125;-66
2022/11/17 09:44:40;;;;;;;4.50;2.63;;;7.50;99.90;;;;;;5013984;28;20072;-66
2022/11/17 09:47:13;;;;;;;5.90;3.58;;;7.60;99.90;;;;;;4992166;28;20046;-66
2022/11/17 09:49:52;;;;;;;6.88;4.50;;;7.60;99.90;;;;;;4996718;28;20505;-66
2022/11/17 09:52:49;;;;;;;5.97;3.45;;;7.60;99.90;;;;;;4993968;28;20121;-66
2022/11/17 09:55:38;;;;;;;8.15;4.22;;;7.70;99.90;;;;;;5005292;28;20524;-66
2022/11/17 09:58:21;;;;;;;6.47;4.22;;;7.40;99.90;;;;;;5008305;28;20042;-66
2022/11/17 10:00:49;;;;;;;6.28;4.47;;;7.40;99.90;;;;;;5018581;28;20052;-66
2022/11/17 10:03:20;;;;;;;6.53;4.40;;;7.40;99.90;;;;;;4994451;28;20077;-66
2022/11/17 10:05:47;;;;;;;8.07;5.10;;;7.40;99.90;;;;;;4991317;28;20038;-67
2022/11/17 10:08:23;;;;;;;7.55;4.82;;;7.30;99.90;;;;;;4991750;28;20042;-66
2022/11/17 10:10:50;;;;;;;4.38;2.42;;;7.40;99.90;;;;;;5009906;28;20042;-66
2022/11/17 10:13:28;;;;;;;6.97;4.45;;;7.50;99.90;;;;;;4993694;28;20553;-67
2022/11/17 10:15:59;;;;;;;6.07;3.75;;;7.50;99.90;;;;;;4984391;28;20440;-66
2022/11/17 10:18:27;;;;;;;5.65;3.63;;;7.40;99.90;;;;;;4987208;28;20384;-66
2022/11/17 10:20:53;;;;;;;7.72;4.57;;;7.50;99.90;;;;;;4993847;28;20038;-66
2022/11/17 10:23:20;;;;;;;5.78;3.05;;;7.50;99.90;;;;;;5007676;28;20383;-66
2022/11/17 10:25:57;;;;;;;6.97;4.53;;;7.50;99.90;;;;;;5011212;28;20490;-66
2022/11/17 10:28:28;;;;;;;6.78;4.25;;;7.50;99.90;;;;;;5010619;28;20040;-66
2022/11/17 10:31:00;;;;;;;6.40;3.67;;;7.70;99.90;;;;;;4995131;28;20037;-66
2022/11/17 10:33:44;;;;;;;6.07;2.97;;;7.60;99.90;;;;;;4990905;28;20431;-66
2022/11/17 10:36:15;;;;;;;6.07;3.58;;;7.70;99.90;;;;;;4996223;28;20046;-66
2022/11/17 10:38:49;;;;;;;6.25;3.72;;;7.60;99.90;;;;;;5012014;28;20049;-66
2022/11/17 10:41:37;;;;;;;6.32;3.92;;;7.50;99.90;;;;;;5013289;28;20048;-66
2022/11/17 10:44:25;;;;;;;7.03;3.60;;;7.50;99.90;;;;;;4993504;28;20045;-66
2022/11/17 10:47:00;;;;;;;6.57;3.90;;;7.50;99.90;;;;;;4992989;28;20038;-66
2022/11/17 10:49:29;;;;;;;5.95;3.50;;;7.50;99.90;;;;;;4991606;28;20037;-66
2022/11/17 10:52:10;;;;;;;6.35;3.97;;;7.70;99.90;;;;;;5011489;28;20056;-66
2022/11/17 10:54:37;;;;;;;6.28;4.07;;;7.60;99.90;;;;;;4993151;28;20042;-67
2022/11/17 10:57:08;;;;;;;7.10;4.90;;;7.50;99.90;;;;;;5007926;28;20039;-66
2022/11/17 10:59:56;;;;;;;6.60;4.00;;;7.50;99.90;;;;;;5010799;28;20046;-66
2022/11/17 11:02:37;;;;;;;5.97;3.45;;;7.40;99.90;;;;;;4992438;28;20513;-66
2022/11/17 11:05:07;;;;;;;6.15;3.70;;;7.50;99.90;;;;;;5010624;28;20410;-66
2022/11/17 11:07:33;;;;;;;6.55;4.13;;;7.60;99.90;;;;;;4992147;28;20034;-66
2022/11/17 11:10:22;;;;;;;8.75;4.90;;;7.50;99.90;;;;;;5004384;28;20049;-66
2022/11/17 11:13:25;;;;;;;7.55;4.72;;;7.60;99.90;;;;;;5001115;28;20038;-67
2022/11/17 11:15:52;;;;;;;6.47;4.03;;;7.50;99.90;;;;;;5009183;28;20521;-66
2022/11/17 11:18:19;;;;;;;8.40;5.22;;;7.60;99.90;;;;;;4991767;28;20034;-66
2022/11/17 11:21:04;;;;;;;7.28;4.50;;;7.50;99.90;;;;;;5012515;28;20064;-66
2022/11/17 11:24:03;;;;;;;5.60;3.47;;;7.50;99.90;;;;;;5012035;28;20056;-66
2022/11/17 11:26:50;;;;;;;5.50;3.35;;;7.50;99.90;;;;;;4995504;28;20052;-67
2022/11/17 11:29:44;;;;;;;6.43;2.80;;;7.50;99.90;;;;;;5012451;28;20529;-67
2022/11/17 11:32:29;;;;;;;8.50;4.45;;;7.70;99.90;;;;;;4995747;28;20069;-66
2022/11/17 11:35:41;;;;;;;6.22;3.17;;;7.60;99.90;;;;;;5011782;28;20057;-66
2022/11/17 11:38:31;;;;;;;7.47;3.97;;;7.70;99.90;;;;;;5012097;28;20041;-66
2022/11/17 11:41:25;;;;;;;6.28;3.47;;;7.60;99.90;;;;;;5012271;28;20313;-66
2022/11/17 11:44:01;;;;;;;6.68;3.85;;;7.60;99.90;;;;;;5011365;28;20060;-67
2022/11/17 11:46:48;;;;;;;6.40;3.75;;;7.50;99.90;;;;;;4995593;28;20123;-66
2022/11/17 11:49:40;;;;;;;7.68;3.75;;;7.60;99.90;;;;;;4995948;28;20505;-67
2022/11/17 11:52:13;;;;;;;6.82;4.03;;;7.60;99.90;;;;;;5012128;28;20042;-69
2022/11/17 11:54:50;;;;;;;7.65;4.30;;;7.70;99.90;;;;;;5008078;28;20052;-66
2022/11/17 11:57:19;;;;;;;7.50;4.00;;;7.70;99.90;;;;;;4989242;28;20038;-66
2022/11/17 11:59:53;;;;;;;7.57;3.70;;;7.80;99.90;;;;;;4975618;28;20121;-67
2022/11/17 12:02:30;;;;;;;6.63;3.92;;;7.80;99.90;;;;;;5008534;28;20038;-66
2022/11/17 12:05:40;;;;;;;6.85;4.35;;;7.70;99.90;;;;;;5011002;28;20510;-66
2022/11/17 12:08:08;;;;;;;7.43;3.83;;;7.70;99.90;;;;;;4991470;28;20039;-66
2022/11/17 12:10:50;;;;;;;5.95;3.50;;;7.70;99.90;;;;;;5009814;28;20037;-66
2022/11/17 12:13:19;;;;;;;6.25;3.65;;;7.70;99.90;;;;;;5002247;28;20048;-66
2022/11/17 12:15:45;;;;;;;7.65;4.32;;;7.80;99.90;;;;;;4998283;28;20522;-66
2022/11/17 12:18:28;;;;;;;6.07;3.47;;;7.70;99.90;;;;;;4985348;28;20038;-66
2022/11/17 12:21:01;;;;;;;9.35;4.07;;;7.70;99.90;;;;;;5013927;28;20510;-66
2022/11/17 12:23:36;;;;;;;7.97;4.00;;;7.80;99.90;;;;;;5015811;28;20041;-66
2022/11/17 12:26:03;;;;;;;6.53;3.47;;;7.80;99.90;;;;;;5015200;28;20034;-66
2022/11/17 12:28:35;;;;;;;5.78;3.40;;;7.80;99.90;;;;;;5013199;28;20038;-66
2022/11/17 12:31:23;;;;;;;7.13;3.50;;;7.70;99.90;;;;;;5026460;28;20106;-67
2022/11/17 12:33:51;;;;;;;7.03;3.85;;;7.70;99.90;;;;;;5005822;28;20037;-67
2022/11/17 12:36:23;;;;;;;8.98;4.32;;;7.70;99.90;;;;;;5013843;28;20080;-67
2022/11/17 12:38:53;;;;;;;7.20;3.95;;;7.70;99.90;;;;;;5014354;28;20049;-66
2022/11/17 12:41:47;;;;;;;6.30;3.58;;;7.70;99.90;;;;;;4982639;28;20116;-67
2022/11/17 12:44:46;;;;;;;5.32;3.17;;;7.80;99.90;;;;;;5012777;28;20137;-66
2022/11/17 12:47:17;;;;;;;4.32;2.47;;;7.80;99.90;;;;;;5010850;28;20042;-67
2022/11/17 12:50:13;;;;;;;6.77;3.77;;;8.00;99.90;;;;;;4997642;28;20129;-66
2022/11/17 12:52:58;;;;;;;6.50;3.10;;;7.80;99.90;;;;;;4978121;28;20053;-66
2022/11/17 12:55:45;;;;;;;6.80;3.45;;;7.80;99.90;;;;;;5018177;28;20040;-67
2022/11/17 12:58:16;;;;;;;6.00;3.30;;;7.90;99.90;;;;;;5016260;28;20498;-67
2022/11/17 13:00:58;;;;;;;6.00;3.00;;;7.90;99.90;;;;;;5007799;28;20168;-66
2022/11/17 13:03:48;;;;;;;6.35;3.33;;;7.90;99.90;;;;;;5010123;28;20121;-67
2022/11/17 13:06:15;;;;;;;6.90;3.80;;;8.00;99.90;;;;;;5015020;28;20049;-66
2022/11/17 13:09:25;;;;;;;7.88;4.15;;;7.90;99.90;;;;;;5013024;28;20045;-67
2022/11/17 13:12:03;;;;;;;6.68;3.95;;;7.90;99.90;;;;;;4998753;28;20042;-66
2022/11/17 13:14:29;;;;;;;9.00;4.60;;;7.90;99.90;;;;;;5014920;28;20510;-66
2022/11/17 13:16:55;;;;;;;8.85;4.97;;;7.90;99.90;;;;;;4991928;28;20042;-67
2022/11/17 13:19:32;;;;;;;8.25;3.63;;;7.90;99.90;;;;;;5013777;28;20034;-67
2022/11/17 13:22:00;;;;;;;6.07;3.60;;;8.00;99.90;;;;;;5011933;28;20530;-67
2022/11/17 13:24:33;;;;;;;6.25;3.55;;;8.00;99.90;;;;;;5011453;28;20503;-67
2022/11/17 13:27:01;;;;;;;6.07;2.92;;;8.00;99.90;;;;;;4992943;28;20092;-66
2022/11/17 13:29:27;;;;;;;5.10;2.67;;;8.00;99.90;;;;;;5007769;28;20068;-67
2022/11/17 13:32:20;;;;;;;5.30;3.15;;;8.10;99.90;;;;;;5010100;28;20108;-67
2022/11/17 13:34:49;;;;;;;6.07;3.10;;;8.20;99.90;;;;;;4995165;28;20129;-67
2022/11/17 13:37:17;;;;;;;8.40;3.55;;;8.10;99.90;;;;;;5007685;28;20390;-67